createdAt,value
2019-05-17T00:02:26.587Z,6.57
2019-05-17T00:04:56.337Z,9.40
2019-05-17T00:07:27.142Z,7.10
2019-05-17T00:09:57.093Z,7.83
2019-05-17T00:12:27.157Z,7.77
2019-05-17T00:14:56.318Z,7.87
2019-05-17T00:17:26.774Z,10.07
2019-05-17T00:19:56.820Z,9.33
2019-05-17T00:22:27.045Z,8.93
2019-05-17T00:24:56.823Z,8.80
2019-05-17T00:27:26.503Z,9.43
2019-05-17T00:29:57.094Z,9.43
2019-05-17T00:32:27.470Z,9.37
2019-05-17T00:35:17.552Z,9.20
2019-05-17T00:37:46.484Z,10.67
2019-05-17T00:40:16.575Z,9.03
2019-05-17T00:42:46.585Z,7.63
2019-05-17T00:45:17.501Z,11.47
2019-05-17T00:47:46.986Z,9.00
2019-05-17T00:50:17.010Z,7.67
2019-05-17T00:52:47.518Z,10.37
2019-05-17T00:55:36.268Z,8.53
2019-05-17T00:58:06.779Z,10.33
2019-05-17T01:00:57.119Z,9.90
2019-05-17T01:03:44.647Z,8.17
2019-05-17T01:06:13.324Z,8.67
2019-05-17T01:09:04.101Z,8.47
2019-05-17T01:11:31.567Z,8.27
2019-05-17T01:14:00.188Z,7.50
2019-05-17T01:16:28.805Z,11.50
2019-05-17T01:18:57.453Z,10.13
2019-05-17T01:21:26.376Z,8.60
2019-05-17T01:23:56.243Z,9.10
2019-05-17T01:26:26.747Z,13.40
2019-05-17T01:28:57.296Z,15.03
2019-05-17T01:31:26.586Z,11.73
2019-05-17T01:33:56.480Z,13.20
2019-05-17T01:36:26.352Z,12.77
2019-05-17T01:38:57.432Z,11.77
2019-05-17T01:41:26.670Z,14.93
2019-05-17T01:43:56.935Z,12.87
2019-05-17T01:46:26.516Z,14.77
2019-05-17T01:48:57.579Z,14.80
2019-05-17T01:51:26.346Z,14.37
2019-05-17T01:53:57.211Z,14.87
2019-05-17T01:56:26.261Z,15.70
2019-05-17T01:58:54.921Z,18.27
2019-05-17T02:01:27.404Z,17.00
2019-05-17T02:03:57.378Z,15.77
2019-05-17T02:06:27.125Z,16.10
2019-05-17T02:08:56.889Z,15.87
2019-05-17T02:11:26.952Z,18.10
2019-05-17T02:13:56.214Z,18.50
2019-05-17T02:16:26.741Z,18.37
2019-05-17T02:18:57.190Z,19.73
2019-05-17T02:21:27.438Z,21.67
2019-05-17T02:23:57.116Z,22.40
2019-05-17T02:26:26.674Z,22.30
2019-05-17T02:28:55.440Z,22.60
2019-05-17T02:31:24.855Z,22.53
2019-05-17T02:33:53.693Z,22.40
2019-05-17T02:36:22.905Z,22.40
2019-05-17T02:39:13.126Z,23.10
2019-05-17T02:41:43.058Z,22.77
2019-05-17T02:44:13.086Z,21.60
2019-05-17T02:46:43.286Z,22.33
2019-05-17T02:49:13.804Z,21.07
2019-05-17T02:52:03.217Z,19.40
2019-05-17T02:54:32.850Z,22.40
2019-05-17T02:57:03.218Z,20.63
2019-05-17T02:59:33.055Z,18.57
2019-05-17T03:02:03.442Z,18.23
2019-05-17T03:04:32.834Z,18.20
2019-05-17T03:07:03.855Z,18.07
2019-05-17T03:09:33.615Z,18.87
2019-05-17T03:12:23.663Z,18.57
2019-05-17T03:14:52.903Z,20.37
2019-05-17T03:17:22.956Z,18.47
2019-05-17T03:20:12.898Z,19.00
2019-05-17T03:22:43.897Z,17.13
2019-05-17T03:25:14.078Z,19.07
2019-05-17T03:27:43.363Z,18.57
2019-05-17T03:30:17.333Z,19.17
2019-05-17T03:32:47.236Z,19.17
2019-05-17T03:35:37.605Z,21.80
2019-05-17T03:38:04.825Z,19.77
2019-05-17T03:41:01.603Z,20.10
2019-05-17T03:43:04.026Z,19.90
2019-05-17T03:45:33.977Z,21.03
2019-05-17T03:48:04.709Z,23.50
2019-05-17T03:50:33.957Z,21.47
2019-05-17T03:53:02.919Z,20.63
2019-05-17T03:55:33.227Z,26.07
2019-05-17T03:58:03.485Z,23.93
2019-05-17T04:00:35.461Z,25.80
2019-05-17T04:03:03.233Z,22.07
2019-05-17T04:05:33.506Z,21.57
2019-05-17T04:08:03.673Z,23.40
2019-05-17T04:10:33.569Z,23.97
2019-05-17T04:13:04.233Z,24.50
2019-05-17T04:15:33.257Z,26.30
2019-05-17T04:18:04.225Z,21.83
2019-05-17T04:20:33.464Z,22.13
2019-05-17T04:23:04.000Z,25.90
2019-05-17T04:25:33.763Z,25.83
2019-05-17T04:28:03.160Z,24.77
2019-05-17T04:30:32.875Z,23.57
2019-05-17T04:33:03.351Z,24.13
2019-05-17T04:35:32.926Z,24.00
2019-05-17T04:38:23.640Z,24.87
2019-05-17T04:40:53.727Z,23.90
2019-05-17T04:43:23.259Z,27.43
2019-05-17T04:45:53.624Z,23.17
2019-05-17T04:48:23.231Z,28.13
2019-05-17T04:50:53.691Z,28.83
2019-05-17T04:53:23.498Z,27.90
2019-05-17T04:55:54.133Z,25.80
2019-05-17T04:58:23.254Z,25.40
2019-05-17T05:00:53.777Z,25.70
2019-05-17T05:03:23.272Z,26.67
2019-05-17T05:05:53.541Z,24.80
2019-05-17T05:08:22.517Z,23.87
2019-05-17T05:11:12.677Z,25.47
2019-05-17T05:13:42.578Z,23.07
2019-05-17T05:16:13.539Z,22.50
2019-05-17T05:18:42.068Z,21.43
2019-05-17T05:21:22.849Z,24.77
2019-05-17T05:23:51.787Z,22.50
2019-05-17T05:26:22.238Z,26.10
2019-05-17T05:29:12.637Z,21.70
2019-05-17T05:31:42.599Z,20.53
2019-05-17T05:34:12.313Z,23.07
2019-05-17T05:36:41.857Z,20.40
2019-05-17T05:39:11.673Z,23.73
2019-05-17T05:42:08.045Z,19.23
2019-05-17T05:47:11.478Z,19.47
2019-05-17T05:49:39.869Z,19.10
2019-05-17T05:52:08.545Z,19.00
2019-05-17T05:54:41.313Z,19.27
2019-05-17T05:57:12.613Z,19.43
2019-05-17T05:59:42.578Z,18.60
2019-05-17T06:02:13.146Z,22.73
2019-05-17T06:04:42.400Z,16.60
2019-05-17T06:07:12.972Z,17.67
2019-05-17T06:09:42.355Z,15.77
2019-05-17T06:12:22.969Z,18.10
2019-05-17T06:14:43.131Z,15.23
2019-05-17T06:17:12.610Z,19.30
2019-05-17T06:19:42.200Z,16.80
2019-05-17T06:22:32.883Z,17.13
2019-05-17T06:25:06.186Z,14.97
2019-05-17T06:27:36.772Z,18.27
2019-05-17T06:30:08.997Z,17.70
2019-05-17T06:32:42.683Z,14.63
2019-05-17T06:35:12.578Z,15.87
2019-05-17T06:37:42.516Z,14.33
2019-05-17T06:40:32.861Z,14.83
2019-05-17T06:43:04.191Z,15.93
2019-05-17T06:45:32.590Z,17.67
2019-05-17T06:48:02.557Z,15.03
2019-05-17T06:50:51.961Z,15.90
2019-05-17T06:53:21.930Z,13.50
2019-05-17T06:55:53.267Z,13.97
2019-05-17T06:58:22.234Z,15.23
2019-05-17T07:01:10.431Z,14.00
2019-05-17T07:03:39.987Z,18.60
2019-05-17T07:06:12.019Z,14.07
2019-05-17T07:09:00.959Z,16.20
2019-05-17T07:11:30.342Z,13.77
2019-05-17T07:14:20.062Z,13.10
2019-05-17T07:16:50.067Z,14.07
2019-05-17T07:19:19.753Z,15.37
2019-05-17T07:21:49.466Z,15.40
2019-05-17T07:24:19.592Z,21.07
2019-05-17T07:26:49.808Z,14.27
2019-05-17T07:29:19.390Z,16.47
2019-05-17T07:31:49.792Z,12.90
2019-05-17T07:34:19.969Z,13.27
2019-05-17T07:36:50.350Z,13.20
2019-05-17T07:39:20.494Z,13.73
2019-05-17T07:41:49.418Z,14.57
2019-05-17T07:44:20.395Z,13.03
2019-05-17T07:46:51.824Z,11.27
2019-05-17T07:49:20.031Z,11.70
2019-05-17T07:51:50.259Z,13.90
2019-05-17T07:54:19.740Z,11.90
2019-05-17T07:56:50.553Z,11.67
2019-05-17T07:59:19.971Z,11.87
2019-05-17T08:02:10.459Z,11.90
2019-05-17T08:04:40.692Z,12.03
2019-05-17T08:07:10.771Z,10.57
2019-05-17T08:10:00.209Z,12.80
2019-05-17T08:12:30.538Z,11.57
2019-05-17T08:14:59.996Z,13.27
2019-05-17T08:17:30.650Z,12.27
2019-05-17T08:20:01.835Z,10.67
2019-05-17T08:22:39.534Z,13.40
2019-05-17T08:25:11.876Z,11.47
2019-05-17T08:27:44.847Z,10.53
2019-05-17T08:30:26.379Z,12.47
2019-05-17T08:33:00.748Z,12.50
2019-05-17T08:35:30.322Z,11.63
2019-05-17T08:38:00.488Z,14.70
2019-05-17T08:40:32.956Z,13.43
2019-05-17T08:43:02.582Z,15.50
2019-05-17T08:45:32.707Z,13.13
2019-05-17T08:48:02.777Z,11.17
2019-05-17T08:50:31.550Z,13.27
2019-05-17T08:53:02.825Z,11.93
2019-05-17T08:55:31.589Z,11.93
2019-05-17T08:58:01.008Z,11.97
2019-05-17T09:00:31.419Z,11.17
2019-05-17T09:03:00.307Z,11.67
2019-05-17T09:05:30.279Z,13.33
2019-05-17T09:08:00.083Z,13.47
2019-05-17T09:10:50.456Z,13.47
2019-05-17T09:13:19.639Z,11.57
2019-05-17T09:15:49.472Z,13.70
2019-05-17T09:18:20.418Z,13.50
2019-05-17T09:20:49.486Z,11.30
2019-05-17T09:23:39.498Z,11.60
2019-05-17T09:26:11.197Z,11.67
2019-05-17T09:28:40.145Z,10.27
2019-05-17T09:31:10.579Z,9.00
2019-05-17T09:33:40.654Z,9.80
2019-05-17T09:36:30.304Z,4.87
2019-05-17T09:39:00.153Z,5.43
2019-05-17T09:41:29.693Z,4.80
2019-05-17T09:44:09.576Z,8.57
2019-05-17T09:46:30.303Z,7.83
2019-05-17T09:49:01.123Z,5.33
2019-05-17T09:51:30.304Z,8.97
2019-05-17T09:54:19.849Z,6.83
2019-05-17T09:56:49.722Z,8.80
2019-05-17T09:59:20.377Z,6.30
2019-05-17T10:01:49.477Z,6.30
2019-05-17T10:04:19.916Z,6.13
2019-05-17T10:06:48.544Z,5.97
2019-05-17T10:09:19.480Z,9.87
2019-05-17T10:11:49.236Z,8.57
2019-05-17T10:14:27.486Z,8.13
2019-05-17T10:16:48.217Z,6.43
2019-05-17T10:19:16.985Z,7.50
2019-05-17T10:22:04.950Z,5.50
2019-05-17T10:24:37.841Z,7.47
2019-05-17T10:27:03.906Z,6.00
2019-05-17T10:29:32.581Z,6.63
2019-05-17T10:32:01.219Z,7.23
2019-05-17T10:34:29.966Z,8.37
2019-05-17T10:36:58.657Z,6.80
2019-05-17T10:39:29.445Z,6.63
2019-05-17T10:42:00.241Z,8.00
2019-05-17T10:44:43.091Z,6.33
2019-05-17T10:46:59.329Z,5.97
2019-05-17T10:49:29.584Z,6.10
2019-05-17T10:51:59.945Z,5.17
2019-05-17T10:54:30.406Z,7.43
2019-05-17T10:56:59.692Z,6.40
2019-05-17T10:59:28.888Z,5.57
2019-05-17T11:01:59.460Z,5.43
2019-05-17T11:04:30.015Z,6.53
2019-05-17T11:06:59.575Z,5.50
2019-05-17T11:09:31.077Z,7.13
2019-05-17T11:12:00.685Z,5.47
2019-05-17T11:14:29.433Z,8.20
2019-05-17T11:16:58.134Z,8.80
2019-05-17T11:19:26.807Z,4.60
2019-05-17T11:21:55.605Z,6.20
2019-05-17T11:24:26.160Z,5.53
2019-05-17T11:26:54.791Z,7.17
2019-05-17T11:29:23.566Z,6.00
2019-05-17T11:31:52.128Z,4.63
2019-05-17T11:34:25.535Z,6.45
2019-05-17T11:36:52.539Z,4.23
2019-05-17T11:39:21.205Z,5.20
2019-05-17T11:41:49.839Z,4.67
2019-05-17T11:44:20.064Z,5.20
2019-05-17T11:46:48.617Z,5.50
2019-05-17T11:49:17.298Z,7.30
2019-05-17T11:52:05.255Z,5.47
2019-05-17T11:54:55.882Z,5.20
2019-05-17T11:57:24.515Z,3.90
2019-05-17T11:59:53.267Z,3.40
2019-05-17T12:02:21.893Z,4.50
2019-05-17T12:04:50.570Z,5.40
2019-05-17T12:07:19.267Z,4.70
2019-05-17T12:09:47.958Z,5.73
2019-05-17T12:12:16.656Z,5.07
2019-05-17T12:14:46.802Z,5.03
2019-05-17T12:17:15.357Z,8.40
2019-05-17T12:19:43.970Z,7.93
2019-05-17T12:22:12.667Z,6.03
2019-05-17T12:24:41.364Z,5.47
2019-05-17T12:27:11.510Z,6.07
2019-05-17T12:29:41.742Z,7.57
2019-05-17T12:32:16.595Z,6.33
2019-05-17T12:34:42.170Z,5.57
2019-05-17T12:37:10.734Z,6.67
2019-05-17T12:39:39.507Z,7.33
2019-05-17T12:42:08.474Z,11.43
2019-05-17T12:44:37.422Z,6.47
2019-05-17T12:47:25.506Z,5.73
2019-05-17T12:49:54.137Z,8.17
2019-05-17T12:52:22.765Z,8.97
2019-05-17T12:54:51.390Z,8.33
2019-05-17T12:57:20.086Z,6.97
2019-05-17T12:59:48.943Z,8.73
2019-05-17T13:02:17.508Z,8.27
2019-05-17T13:04:46.056Z,6.00
2019-05-17T13:07:14.725Z,8.63
2019-05-17T13:09:43.558Z,6.33
2019-05-17T13:12:12.236Z,5.87
2019-05-17T13:15:00.269Z,6.10
2019-05-17T13:17:28.889Z,8.83
2019-05-17T13:19:57.565Z,6.07
2019-05-17T13:22:26.128Z,6.60
2019-05-17T13:24:54.765Z,5.67
2019-05-17T13:27:23.377Z,6.80
2019-05-17T13:29:52.244Z,5.30
2019-05-17T13:32:20.930Z,5.00
2019-05-17T13:34:49.635Z,5.40
2019-05-17T13:37:19.186Z,5.57
2019-05-17T13:39:47.742Z,5.37
2019-05-17T13:42:16.345Z,4.60
2019-05-17T13:44:44.973Z,5.40
2019-05-17T13:47:16.017Z,5.93
2019-05-17T13:49:44.885Z,6.70
2019-05-17T13:52:13.472Z,4.17
2019-05-17T13:54:42.195Z,4.30
2019-05-17T13:57:11.434Z,7.57
2019-05-17T13:59:40.191Z,5.20
2019-05-17T14:02:28.207Z,4.93
2019-05-17T14:04:56.829Z,5.97
2019-05-17T14:07:25.576Z,6.23
2019-05-17T14:09:54.272Z,5.00
2019-05-17T14:12:23.054Z,6.30
2019-05-17T14:14:53.157Z,5.53
2019-05-17T14:17:21.907Z,5.73
2019-05-17T14:19:50.453Z,4.00
2019-05-17T14:22:19.137Z,7.30
2019-05-17T14:24:47.816Z,8.57
2019-05-17T14:27:16.496Z,5.20
2019-05-17T14:29:45.200Z,7.27
2019-05-17T14:32:14.628Z,4.43
2019-05-17T14:34:43.468Z,5.93
2019-05-17T14:37:12.154Z,7.17
2019-05-17T14:39:40.702Z,4.30
2019-05-17T14:42:09.454Z,7.20
2019-05-17T14:44:38.253Z,4.37
2019-05-17T14:47:07.101Z,4.70
2019-05-17T14:49:35.801Z,6.03
2019-05-17T14:52:04.754Z,5.10
2019-05-17T14:54:33.306Z,5.43
2019-05-17T14:57:02.082Z,4.77
2019-05-17T14:59:30.725Z,4.27
2019-05-17T15:02:18.840Z,4.40
2019-05-17T15:04:47.571Z,6.53
2019-05-17T15:07:16.253Z,5.97
2019-05-17T15:09:44.818Z,5.13
2019-05-17T15:12:27.126Z,3.33
2019-05-17T15:14:43.792Z,8.07
2019-05-17T15:17:24.744Z,8.53
2019-05-17T15:19:53.316Z,5.10
2019-05-17T15:22:22.049Z,4.37
2019-05-17T15:24:50.730Z,5.77
2019-05-17T15:27:19.313Z,5.80
2019-05-17T15:29:47.954Z,9.50
2019-05-17T15:32:16.701Z,4.53
2019-05-17T15:34:45.262Z,6.10
2019-05-17T15:37:13.868Z,5.03
2019-05-17T15:39:42.505Z,6.47
2019-05-17T15:42:11.349Z,5.10
2019-05-17T15:44:39.918Z,4.43
2019-05-17T15:47:08.683Z,6.60
2019-05-17T15:49:56.632Z,4.07
2019-05-17T15:52:25.312Z,5.30
2019-05-17T15:54:54.104Z,4.90
2019-05-17T15:57:22.870Z,8.03
2019-05-17T15:59:51.490Z,8.60
2019-05-17T16:02:20.245Z,4.07
2019-05-17T16:04:48.945Z,8.57
2019-05-17T16:07:17.783Z,6.27
2019-05-17T16:09:46.347Z,5.50
2019-05-17T16:12:15.020Z,5.57
2019-05-17T16:14:45.129Z,5.23
2019-05-17T16:17:13.806Z,7.43
2019-05-17T16:19:42.508Z,5.73
2019-05-17T16:22:11.268Z,4.30
2019-05-17T16:24:39.965Z,4.13
2019-05-17T16:27:08.714Z,6.70
2019-05-17T16:29:37.345Z,3.87
2019-05-17T16:32:06.019Z,3.80
2019-05-17T16:34:36.118Z,3.50
2019-05-17T16:37:04.989Z,5.80
2019-05-17T16:39:33.686Z,5.47
2019-05-17T16:42:02.425Z,3.03
2019-05-17T16:44:31.185Z,3.50
2019-05-17T16:46:59.888Z,5.13
2019-05-17T16:49:30.033Z,4.83
2019-05-17T16:51:58.664Z,4.10
2019-05-17T16:54:27.435Z,5.97
2019-05-17T16:56:56.153Z,5.00
2019-05-17T16:59:24.753Z,4.70
2019-05-17T17:01:53.452Z,5.73
2019-05-17T17:04:22.201Z,10.73
2019-05-17T17:06:50.838Z,6.27
2019-05-17T17:09:19.593Z,3.73
2019-05-17T17:11:48.293Z,3.13
2019-05-17T17:14:16.970Z,3.60
2019-05-17T17:16:45.673Z,2.80
2019-05-17T17:19:14.515Z,3.50
2019-05-17T17:21:43.238Z,4.93
2019-05-17T17:24:11.981Z,4.10
2019-05-17T17:26:40.694Z,4.40
2019-05-17T17:29:09.425Z,3.93
2019-05-17T17:31:38.053Z,6.87
2019-05-17T17:34:06.748Z,7.23
2019-05-17T17:36:35.499Z,4.97
2019-05-17T17:39:05.864Z,3.90
2019-05-17T17:41:34.619Z,4.10
2019-05-17T17:44:03.619Z,4.93
2019-05-17T17:46:32.362Z,3.47
2019-05-17T17:49:00.920Z,4.67
2019-05-17T17:51:29.639Z,6.87
2019-05-17T17:53:58.265Z,6.53
2019-05-17T17:56:26.975Z,5.83
2019-05-17T17:58:55.646Z,4.43
2019-05-17T18:01:24.389Z,4.20
2019-05-17T18:03:53.084Z,8.47
2019-05-17T18:06:21.764Z,6.13
2019-05-17T18:08:50.393Z,7.60
2019-05-17T18:11:19.072Z,5.80
2019-05-17T18:13:47.627Z,5.03
2019-05-17T18:16:16.381Z,4.33
2019-05-17T18:18:45.080Z,6.03
2019-05-17T18:21:13.757Z,4.90
2019-05-17T18:23:42.389Z,7.00
2019-05-17T18:26:10.993Z,6.63
2019-05-17T18:28:39.631Z,6.67
2019-05-17T18:31:08.481Z,5.50
2019-05-17T18:33:37.045Z,7.07
2019-05-17T18:36:05.795Z,8.70
2019-05-17T18:38:35.498Z,7.33
2019-05-17T18:41:23.517Z,7.47
2019-05-17T18:44:11.484Z,6.33
2019-05-17T18:46:40.258Z,7.03
2019-05-17T18:49:08.928Z,10.00
2019-05-17T18:51:37.536Z,7.03
2019-05-17T18:54:07.533Z,6.27
2019-05-17T18:56:36.305Z,8.73
2019-05-17T18:59:04.846Z,6.90
2019-05-17T19:01:33.597Z,11.73
2019-05-17T19:04:02.342Z,8.20
2019-05-17T19:06:31.017Z,8.93
2019-05-17T19:08:59.646Z,8.70
2019-05-17T19:11:29.793Z,11.30
2019-05-17T19:13:58.421Z,8.70
2019-05-17T19:16:27.189Z,9.87
2019-05-17T19:18:55.877Z,8.43
2019-05-17T19:21:24.564Z,8.37
2019-05-17T19:23:53.260Z,9.47
2019-05-17T19:26:21.942Z,9.23
2019-05-17T19:28:50.576Z,11.37
2019-05-17T19:31:19.266Z,9.80
2019-05-17T19:33:47.824Z,9.13
2019-05-17T19:36:16.604Z,8.83
2019-05-17T19:38:45.168Z,9.20
2019-05-17T19:41:13.844Z,8.30
2019-05-17T19:43:42.409Z,10.37
2019-05-17T19:46:11.156Z,9.40
2019-05-17T19:48:39.849Z,8.53
2019-05-17T19:51:08.463Z,9.40
2019-05-17T19:53:37.090Z,8.37
2019-05-17T19:56:05.837Z,9.17
2019-05-17T19:58:34.473Z,11.93
2019-05-17T20:01:03.077Z,9.73
2019-05-17T20:03:31.776Z,12.43
2019-05-17T20:06:00.458Z,9.17
2019-05-17T20:08:30.625Z,8.60
2019-05-17T20:10:59.310Z,14.30
2019-05-17T20:13:27.937Z,11.47
2019-05-17T20:15:56.644Z,8.23
2019-05-17T20:18:25.323Z,9.30
2019-05-17T20:20:53.958Z,9.97
2019-05-17T20:23:22.559Z,8.70
2019-05-17T20:25:51.194Z,8.63
2019-05-17T20:28:39.214Z,8.63
2019-05-17T20:31:07.889Z,9.13
2019-05-17T20:33:36.524Z,9.10
2019-05-17T20:36:24.553Z,10.97
2019-05-17T20:38:53.109Z,11.07
2019-05-17T20:41:21.856Z,8.33
2019-05-17T20:43:50.491Z,9.13
2019-05-17T20:46:19.161Z,8.27
2019-05-17T20:48:47.724Z,10.43
2019-05-17T20:51:16.397Z,8.67
2019-05-17T20:53:45.097Z,10.67
2019-05-17T20:56:13.800Z,8.43
2019-05-17T20:58:42.576Z,8.23
2019-05-17T21:01:30.663Z,7.13
2019-05-17T21:03:59.225Z,7.63
2019-05-17T21:06:27.900Z,7.37
2019-05-17T21:08:56.529Z,8.00
2019-05-17T21:11:25.229Z,7.40
2019-05-17T21:14:13.196Z,7.23
2019-05-17T21:16:41.795Z,7.57
2019-05-17T21:19:10.497Z,7.60
2019-05-17T21:21:39.105Z,9.67
2019-05-17T21:24:07.732Z,8.67
2019-05-17T21:26:36.653Z,8.30
2019-05-17T21:29:06.869Z,8.20
2019-05-17T21:31:35.571Z,8.13
2019-05-17T21:34:04.332Z,7.60
2019-05-17T21:36:32.959Z,8.67
2019-05-17T21:39:04.068Z,7.93
2019-05-17T21:41:32.703Z,7.40
2019-05-17T21:44:01.306Z,9.07
2019-05-17T21:46:30.008Z,7.73
2019-05-17T21:48:58.849Z,7.80
2019-05-17T21:51:27.545Z,7.77
2019-05-17T21:53:56.149Z,7.93
2019-05-17T21:56:26.236Z,6.90
2019-05-17T21:59:14.248Z,7.73
2019-05-17T22:01:42.949Z,9.90
2019-05-17T22:04:11.617Z,7.90
2019-05-17T22:06:40.261Z,8.07
2019-05-17T22:09:08.996Z,9.30
2019-05-17T22:11:39.396Z,7.33
2019-05-17T22:14:08.049Z,7.60
2019-05-17T22:16:36.615Z,7.03
2019-05-17T22:19:05.557Z,8.00
2019-05-17T22:21:53.525Z,8.67
2019-05-17T22:24:22.198Z,9.87
2019-05-17T22:26:50.833Z,9.37
2019-05-17T22:29:19.576Z,11.10
2019-05-17T22:31:48.209Z,11.10
2019-05-17T22:34:16.960Z,12.10
2019-05-17T22:36:45.761Z,13.70
2019-05-17T22:39:14.452Z,11.43
2019-05-17T22:41:44.556Z,14.90
2019-05-17T22:44:32.570Z,11.47
2019-05-17T22:47:20.609Z,12.60
2019-05-17T22:49:49.223Z,9.23
2019-05-17T22:52:17.846Z,10.03
2019-05-17T22:54:46.523Z,8.90
2019-05-17T22:57:15.146Z,15.57
2019-05-17T22:59:43.864Z,12.97
2019-05-17T23:02:12.499Z,8.77
2019-05-17T23:04:41.241Z,8.67
2019-05-17T23:07:09.945Z,8.40
2019-05-17T23:09:38.790Z,7.97
2019-05-17T23:12:07.416Z,8.30
2019-05-17T23:14:36.095Z,9.87
2019-05-17T23:17:04.733Z,16.43
2019-05-17T23:19:45.929Z,11.77
2019-05-17T23:22:14.564Z,14.80
2019-05-17T23:24:43.295Z,9.63
2019-05-17T23:27:11.934Z,9.17
2019-05-17T23:29:41.289Z,10.30
2019-05-17T23:32:10.087Z,9.63
2019-05-17T23:34:38.855Z,9.00
2019-05-17T23:37:09.033Z,12.60
2019-05-17T23:39:37.788Z,11.27
2019-05-17T23:42:06.428Z,11.30
2019-05-17T23:44:35.172Z,11.20
2019-05-17T23:47:07.116Z,8.23
2019-05-17T23:49:35.773Z,7.70
2019-05-17T23:52:04.402Z,8.23
2019-05-17T23:54:34.612Z,8.47
2019-05-17T23:57:22.585Z,8.40
2019-05-17T23:59:51.273Z,10.77
